createdAt,value
2023-04-16T00:00:08.199Z,85.66
2023-04-16T00:01:04.830Z,85.68
2023-04-16T00:01:39.591Z,85.67
2023-04-16T00:02:13.267Z,85.66
2023-04-16T00:02:46.940Z,85.70
2023-04-16T00:03:20.859Z,85.64
2023-04-16T00:03:55.948Z,85.74
2023-04-16T00:04:29.706Z,85.65
2023-04-16T00:05:04.536Z,85.65
2023-04-16T00:05:38.106Z,85.66
2023-04-16T00:06:12.807Z,85.58
2023-04-16T00:06:46.470Z,85.46
2023-04-16T00:07:19.858Z,85.55
2023-04-16T00:07:53.461Z,85.51
2023-04-16T00:08:26.914Z,85.60
2023-04-16T00:09:00.425Z,85.59
2023-04-16T00:09:34.004Z,85.55
2023-04-16T00:10:08.147Z,85.62
2023-04-16T00:10:43.406Z,85.59
2023-04-16T00:11:20.205Z,85.62
2023-04-16T00:11:55.113Z,85.60
2023-04-16T00:12:28.598Z,85.59
2023-04-16T00:13:02.058Z,85.69
2023-04-16T00:13:35.788Z,85.61
2023-04-16T00:14:09.222Z,85.63
2023-04-16T00:14:43.786Z,85.56
2023-04-16T00:15:17.204Z,85.68
2023-04-16T00:15:50.797Z,85.62
2023-04-16T00:16:24.239Z,85.73
2023-04-16T00:16:57.681Z,85.72
2023-04-16T00:17:31.316Z,85.67
2023-04-16T00:18:05.719Z,85.62
2023-04-16T00:18:41.374Z,85.64
2023-04-16T00:19:14.843Z,85.65
2023-04-16T00:19:48.153Z,85.63
2023-04-16T00:20:22.752Z,85.59
2023-04-16T00:20:56.107Z,85.56
2023-04-16T00:21:29.547Z,85.60
2023-04-16T00:22:02.829Z,85.54
2023-04-16T00:22:36.264Z,85.56
2023-04-16T00:23:09.641Z,85.50
2023-04-16T00:23:42.832Z,85.68
2023-04-16T00:24:16.227Z,85.67
2023-04-16T00:24:49.640Z,85.62
2023-04-16T00:25:22.994Z,85.56
2023-04-16T00:26:00.181Z,85.56
2023-04-16T00:26:36.234Z,85.57
2023-04-16T00:27:09.600Z,85.62
2023-04-16T00:27:42.847Z,85.51
2023-04-16T00:28:16.350Z,85.45
2023-04-16T00:28:49.713Z,85.49
2023-04-16T00:29:23.415Z,85.42
2023-04-16T00:29:56.837Z,85.40
2023-04-16T00:30:30.187Z,85.38
2023-04-16T00:31:03.674Z,85.35
2023-04-16T00:31:37.281Z,85.39
2023-04-16T00:32:10.552Z,85.33
2023-04-16T00:32:43.926Z,85.35
2023-04-16T00:33:17.912Z,85.37
2023-04-16T00:33:51.352Z,85.41
2023-04-16T00:34:24.791Z,85.39
2023-04-16T00:34:58.250Z,85.28
2023-04-16T00:35:31.766Z,85.29
2023-04-16T00:36:05.865Z,85.32
2023-04-16T00:36:39.256Z,85.33
2023-04-16T00:37:14.463Z,85.35
2023-04-16T00:37:49.318Z,85.37
2023-04-16T00:38:22.726Z,85.34
2023-04-16T00:38:57.183Z,85.27
2023-04-16T00:39:30.525Z,85.28
2023-04-16T00:40:04.143Z,85.38
2023-04-16T00:40:37.846Z,85.39
2023-04-16T00:41:11.171Z,85.29
2023-04-16T00:41:44.936Z,85.35
2023-04-16T00:42:18.162Z,85.31
2023-04-16T00:42:51.781Z,85.33
2023-04-16T00:43:27.963Z,85.22
2023-04-16T00:44:01.509Z,85.29
2023-04-16T00:44:37.965Z,85.27
2023-04-16T00:45:11.948Z,85.28
2023-04-16T00:45:46.110Z,85.28
2023-04-16T00:46:21.486Z,85.32
2023-04-16T00:46:56.501Z,85.20
2023-04-16T00:47:30.141Z,85.20
2023-04-16T00:48:04.935Z,85.25
2023-04-16T00:48:40.109Z,85.32
2023-04-16T00:49:13.538Z,85.23
2023-04-16T00:49:47.224Z,85.20
2023-04-16T00:50:20.901Z,85.13
2023-04-16T00:50:55.651Z,85.09
2023-04-16T00:51:29.271Z,85.00
2023-04-16T00:52:03.629Z,85.01
2023-04-16T00:52:37.738Z,85.00
2023-04-16T00:53:14.123Z,85.05
2023-04-16T00:53:48.450Z,85.09
2023-04-16T00:54:22.169Z,85.19
2023-04-16T00:54:56.655Z,85.24
2023-04-16T00:55:30.061Z,85.29
2023-04-16T00:56:05.872Z,85.27
2023-04-16T00:56:40.104Z,85.31
2023-04-16T00:57:15.187Z,85.37
2023-04-16T00:57:48.640Z,85.34
2023-04-16T00:58:22.277Z,85.39
2023-04-16T00:58:58.926Z,85.35
2023-04-16T00:59:32.814Z,85.37
2023-04-16T01:00:06.886Z,85.40
2023-04-16T01:00:40.408Z,85.34
2023-04-16T01:01:14.713Z,85.44
2023-04-16T01:01:48.233Z,85.48
2023-04-16T01:02:21.991Z,85.42
2023-04-16T01:02:57.245Z,85.33
2023-04-16T01:03:41.349Z,85.36
2023-04-16T01:04:15.340Z,85.40
2023-04-16T01:04:49.253Z,85.35
2023-04-16T01:05:22.560Z,85.42
2023-04-16T01:05:56.099Z,85.45
2023-04-16T01:06:29.507Z,85.44
2023-04-16T01:07:02.898Z,85.49
2023-04-16T01:07:36.538Z,85.42
2023-04-16T01:08:18.863Z,85.42
2023-04-16T01:08:52.486Z,85.43
2023-04-16T01:09:26.552Z,85.61
2023-04-16T01:10:00.150Z,85.56
2023-04-16T01:10:33.888Z,85.55
2023-04-16T01:11:07.938Z,85.57
2023-04-16T01:11:41.304Z,85.57
2023-04-16T01:12:14.738Z,85.56
2023-04-16T01:12:48.141Z,85.60
2023-04-16T01:13:21.465Z,85.56
2023-04-16T01:13:54.938Z,85.57
2023-04-16T01:14:28.567Z,85.56
2023-04-16T01:15:02.199Z,85.62
2023-04-16T01:15:36.191Z,85.62
2023-04-16T01:16:11.872Z,85.55
2023-04-16T01:16:45.261Z,85.52
2023-04-16T01:17:18.815Z,85.63
2023-04-16T01:17:52.561Z,85.65
2023-04-16T01:18:27.094Z,85.66
2023-04-16T01:19:00.426Z,85.59
2023-04-16T01:19:36.473Z,85.65
2023-04-16T01:20:10.216Z,85.65
2023-04-16T01:20:44.192Z,85.66
2023-04-16T01:21:18.173Z,85.67
2023-04-16T01:21:51.767Z,85.69
2023-04-16T01:22:25.269Z,85.65
2023-04-16T01:22:58.703Z,85.68
2023-04-16T01:23:32.743Z,85.63
2023-04-16T01:24:06.840Z,85.61
2023-04-16T01:24:40.762Z,85.62
2023-04-16T01:25:16.910Z,85.61
2023-04-16T01:25:51.210Z,85.59
2023-04-16T01:26:24.739Z,85.52
2023-04-16T01:27:01.337Z,85.60
2023-04-16T01:27:34.848Z,85.59
2023-04-16T01:28:08.728Z,85.51
2023-04-16T01:28:42.344Z,85.54
2023-04-16T01:29:15.874Z,85.57
2023-04-16T01:29:49.508Z,85.60
2023-04-16T01:30:26.561Z,85.61
2023-04-16T01:31:10.182Z,85.60
2023-04-16T01:31:52.169Z,85.55
2023-04-16T01:32:34.091Z,85.61
2023-04-16T01:33:08.545Z,85.61
2023-04-16T01:33:47.669Z,85.54
2023-04-16T01:34:21.345Z,85.59
2023-04-16T01:34:55.184Z,85.61
2023-04-16T01:35:29.392Z,85.58
2023-04-16T01:36:03.979Z,85.62
2023-04-16T01:36:38.184Z,85.57
2023-04-16T01:37:13.069Z,85.55
2023-04-16T01:37:47.813Z,85.64
2023-04-16T01:38:22.716Z,85.57
2023-04-16T01:38:57.512Z,85.54
2023-04-16T01:39:32.547Z,85.52
2023-04-16T01:40:07.101Z,85.57
2023-04-16T01:40:40.549Z,85.57
2023-04-16T01:41:14.033Z,85.48
2023-04-16T01:41:48.010Z,85.51
2023-04-16T01:42:21.446Z,85.53
2023-04-16T01:42:55.697Z,85.55
2023-04-16T01:43:29.034Z,85.53
2023-04-16T01:44:02.313Z,85.53
2023-04-16T01:44:36.856Z,85.46
2023-04-16T01:45:11.911Z,85.52
2023-04-16T01:45:45.961Z,85.54
2023-04-16T01:46:25.364Z,85.43
2023-04-16T01:46:59.373Z,85.43
2023-04-16T01:47:39.183Z,85.40
2023-04-16T01:48:13.133Z,85.43
2023-04-16T01:48:59.084Z,85.37
2023-04-16T01:50:44.779Z,85.49
2023-04-16T01:51:18.206Z,85.48
2023-04-16T01:51:54.472Z,85.40
2023-04-16T01:52:27.802Z,85.42
2023-04-16T01:53:02.398Z,85.36
2023-04-16T01:53:37.231Z,85.31
2023-04-16T01:54:10.848Z,85.34
2023-04-16T01:54:44.217Z,85.35
2023-04-16T01:55:17.559Z,85.38
2023-04-16T01:55:50.892Z,85.37
2023-04-16T01:56:24.218Z,85.33
2023-04-16T01:56:57.884Z,85.36
2023-04-16T01:57:31.110Z,85.43
2023-04-16T01:58:04.539Z,85.35
2023-04-16T01:58:42.374Z,85.43
2023-04-16T01:59:15.881Z,85.39
2023-04-16T01:59:49.287Z,85.39
2023-04-16T02:00:22.965Z,85.41
2023-04-16T02:00:59.197Z,85.45
2023-04-16T02:01:32.921Z,85.38
2023-04-16T02:02:11.576Z,85.46
2023-04-16T02:02:46.764Z,85.37
2023-04-16T02:03:21.858Z,85.44
2023-04-16T02:03:55.340Z,85.54
2023-04-16T02:04:29.006Z,85.51
2023-04-16T02:05:06.133Z,85.57
2023-04-16T02:05:39.561Z,85.54
2023-04-16T02:06:12.916Z,85.60
2023-04-16T02:06:46.270Z,85.57
2023-04-16T02:07:20.528Z,85.54
2023-04-16T02:07:53.955Z,85.60
2023-04-16T02:08:27.743Z,85.70
2023-04-16T02:09:01.129Z,85.63
2023-04-16T02:09:39.862Z,85.58
2023-04-16T02:10:14.817Z,85.61
2023-04-16T02:10:50.443Z,85.53
2023-04-16T02:11:23.871Z,85.58
2023-04-16T02:11:57.502Z,85.59
2023-04-16T02:12:31.312Z,85.67
2023-04-16T02:13:04.634Z,85.70
2023-04-16T02:13:38.445Z,85.72
2023-04-16T02:14:12.194Z,85.65
2023-04-16T02:14:45.778Z,85.66
2023-04-16T02:15:20.796Z,85.62
2023-04-16T02:15:54.471Z,85.57
2023-04-16T02:16:44.273Z,85.58
2023-04-16T02:17:29.788Z,85.57
2023-04-16T02:18:17.207Z,85.68
2023-04-16T02:18:50.932Z,85.63
2023-04-16T02:19:25.784Z,85.59
2023-04-16T02:20:00.297Z,85.54
2023-04-16T02:20:33.924Z,85.64
2023-04-16T02:21:08.052Z,85.62
2023-04-16T02:21:41.971Z,85.55
2023-04-16T02:22:15.668Z,85.55
2023-04-16T02:22:48.996Z,85.53
2023-04-16T02:23:24.255Z,85.53
2023-04-16T02:23:57.764Z,85.55
2023-04-16T02:24:34.077Z,85.57
2023-04-16T02:25:10.631Z,85.57
2023-04-16T02:25:49.227Z,85.56
2023-04-16T02:26:22.668Z,85.57
2023-04-16T02:26:57.168Z,85.57
2023-04-16T02:27:30.886Z,85.60
2023-04-16T02:28:14.724Z,85.51
2023-04-16T02:28:48.555Z,85.61
2023-04-16T02:29:25.112Z,85.62
2023-04-16T02:30:04.736Z,85.59
2023-04-16T02:30:40.194Z,85.59
2023-04-16T02:31:13.847Z,85.68
2023-04-16T02:31:50.310Z,85.64
2023-04-16T02:32:24.143Z,85.67
2023-04-16T02:32:57.531Z,85.62
2023-04-16T02:33:32.150Z,85.63
2023-04-16T02:34:07.774Z,85.62
2023-04-16T02:34:41.837Z,85.70
2023-04-16T02:35:15.119Z,85.71
2023-04-16T02:35:48.975Z,85.70
2023-04-16T02:36:22.300Z,85.73
2023-04-16T02:36:55.648Z,85.56
2023-04-16T02:37:29.128Z,85.57
2023-04-16T02:38:04.428Z,85.66
2023-04-16T02:38:38.329Z,85.74
2023-04-16T02:39:12.220Z,85.72
2023-04-16T02:39:46.521Z,85.74
2023-04-16T02:40:22.392Z,85.62
2023-04-16T02:40:56.033Z,85.69
2023-04-16T02:41:29.675Z,85.68
2023-04-16T02:42:03.387Z,85.76
2023-04-16T02:42:36.818Z,85.84
2023-04-16T02:43:10.158Z,85.84
2023-04-16T02:43:43.606Z,85.87
2023-04-16T02:44:17.124Z,85.94
2023-04-16T02:44:50.698Z,85.88
2023-04-16T02:45:24.936Z,85.88
2023-04-16T02:45:59.668Z,86.00
2023-04-16T02:46:33.075Z,85.93
2023-04-16T02:47:06.674Z,85.92
2023-04-16T02:47:43.110Z,85.97
2023-04-16T02:48:16.377Z,85.93
2023-04-16T02:48:49.746Z,85.92
2023-04-16T02:49:23.184Z,85.96
2023-04-16T02:49:56.501Z,85.98
2023-04-16T02:50:29.774Z,85.95
2023-04-16T02:51:03.426Z,85.92
2023-04-16T02:51:36.850Z,85.93
2023-04-16T02:52:10.186Z,85.94
2023-04-16T02:52:43.605Z,85.98
2023-04-16T02:53:17.149Z,85.97
2023-04-16T02:53:50.760Z,85.93
2023-04-16T02:54:25.294Z,85.94
2023-04-16T02:54:58.831Z,85.94
2023-04-16T02:55:32.354Z,85.92
2023-04-16T02:56:06.546Z,85.94
2023-04-16T02:56:40.099Z,85.92
2023-04-16T02:57:13.649Z,85.91
2023-04-16T02:57:48.003Z,85.94
2023-04-16T02:58:24.465Z,85.97
2023-04-16T02:58:58.013Z,85.96
2023-04-16T02:59:31.576Z,85.97
2023-04-16T03:00:05.699Z,86.00
2023-04-16T03:00:39.152Z,86.04
2023-04-16T03:01:12.743Z,85.93
2023-04-16T03:01:46.714Z,86.01
2023-04-16T03:02:20.311Z,85.94
2023-04-16T03:02:53.791Z,85.94
2023-04-16T03:03:27.464Z,85.96
2023-04-16T03:04:01.299Z,85.97
2023-04-16T03:04:36.469Z,85.96
2023-04-16T03:05:10.694Z,85.97
2023-04-16T03:05:44.449Z,86.07
2023-04-16T03:06:17.913Z,86.03
2023-04-16T03:06:51.566Z,86.02
2023-04-16T03:07:24.843Z,86.11
2023-04-16T03:07:58.117Z,86.10
2023-04-16T03:08:31.497Z,86.07
2023-04-16T03:09:04.905Z,86.06
2023-04-16T03:09:39.799Z,86.10
2023-04-16T03:10:14.119Z,86.05
2023-04-16T03:10:47.464Z,86.05
2023-04-16T03:11:21.550Z,86.12
2023-04-16T03:11:54.928Z,86.09
2023-04-16T03:12:28.458Z,86.04
2023-04-16T03:13:02.456Z,86.09
2023-04-16T03:13:36.590Z,86.12
2023-04-16T03:14:09.955Z,86.04
2023-04-16T03:14:43.556Z,86.04
2023-04-16T03:15:17.199Z,86.11
2023-04-16T03:15:50.926Z,86.14
2023-04-16T03:16:24.440Z,86.08
2023-04-16T03:16:58.812Z,86.01
2023-04-16T03:17:32.346Z,86.06
2023-04-16T03:18:05.881Z,86.05
2023-04-16T03:18:39.284Z,86.01
2023-04-16T03:19:12.828Z,86.02
2023-04-16T03:19:46.412Z,86.03
2023-04-16T03:20:20.426Z,86.01
2023-04-16T03:20:54.409Z,86.08
2023-04-16T03:21:28.170Z,86.11
2023-04-16T03:22:01.607Z,86.11
2023-04-16T03:22:35.157Z,86.06
2023-04-16T03:23:08.571Z,86.08
2023-04-16T03:23:42.106Z,86.02
2023-04-16T03:24:15.659Z,86.04
2023-04-16T03:24:49.696Z,86.08
2023-04-16T03:25:23.376Z,86.01
2023-04-16T03:25:57.610Z,86.06
2023-04-16T03:26:31.237Z,86.01
2023-04-16T03:27:04.850Z,86.01
2023-04-16T03:27:40.048Z,85.99
2023-04-16T03:28:13.581Z,85.97
2023-04-16T03:28:46.972Z,86.02
2023-04-16T03:29:22.938Z,85.96
2023-04-16T03:30:00.042Z,85.93
2023-04-16T03:30:35.502Z,85.94
2023-04-16T03:31:09.990Z,85.95
2023-04-16T03:31:44.200Z,85.89
2023-04-16T03:32:17.783Z,85.98
2023-04-16T03:32:52.225Z,85.91
2023-04-16T03:33:26.522Z,85.90
2023-04-16T03:33:59.949Z,85.85
2023-04-16T03:34:33.505Z,85.91
2023-04-16T03:35:07.914Z,85.87
2023-04-16T03:35:41.635Z,85.79
2023-04-16T03:36:15.238Z,85.85
2023-04-16T03:36:48.809Z,85.85
2023-04-16T03:37:22.233Z,85.89
2023-04-16T03:38:00.671Z,85.89
2023-04-16T03:38:39.928Z,85.85
2023-04-16T03:39:19.933Z,85.84
2023-04-16T03:39:53.262Z,85.89
2023-04-16T03:40:26.556Z,85.80
2023-04-16T03:41:00.128Z,85.92
2023-04-16T03:41:33.934Z,85.89
2023-04-16T03:42:07.477Z,85.84
2023-04-16T03:42:41.407Z,85.85
2023-04-16T03:43:15.251Z,85.82
2023-04-16T03:43:49.428Z,85.85
2023-04-16T03:44:22.978Z,85.88
2023-04-16T03:44:57.612Z,85.94
2023-04-16T03:45:31.066Z,85.96
2023-04-16T03:46:04.773Z,85.89
2023-04-16T03:46:38.185Z,85.97
2023-04-16T03:47:11.676Z,85.92
2023-04-16T03:47:45.206Z,85.95
2023-04-16T03:48:19.932Z,85.87
2023-04-16T03:48:54.091Z,85.98
2023-04-16T03:49:27.758Z,86.00
2023-04-16T03:50:01.101Z,85.98
2023-04-16T03:50:34.680Z,85.96
2023-04-16T03:51:09.378Z,85.94
2023-04-16T03:51:42.771Z,85.95
2023-04-16T03:52:16.153Z,85.95
2023-04-16T03:52:49.594Z,86.03
2023-04-16T03:53:23.321Z,85.92
2023-04-16T03:53:56.811Z,85.94
2023-04-16T03:54:31.739Z,86.02
2023-04-16T03:55:14.232Z,85.92
2023-04-16T03:55:53.727Z,85.99
2023-04-16T03:56:27.356Z,85.99
2023-04-16T03:57:01.239Z,86.03
2023-04-16T03:57:34.949Z,86.03
2023-04-16T03:58:12.331Z,86.01
2023-04-16T03:58:45.598Z,86.02
2023-04-16T03:59:18.959Z,86.09
2023-04-16T03:59:52.293Z,86.11
2023-04-16T04:00:25.768Z,86.15
2023-04-16T04:01:04.249Z,86.02
2023-04-16T04:01:37.505Z,86.07
2023-04-16T04:02:11.631Z,86.04
2023-04-16T04:02:45.204Z,86.04
2023-04-16T04:03:23.533Z,86.06
2023-04-16T04:03:57.367Z,86.04
2023-04-16T04:04:31.033Z,86.05
2023-04-16T04:05:04.595Z,86.07
2023-04-16T04:05:41.965Z,86.02
2023-04-16T04:06:16.782Z,86.01
2023-04-16T04:06:50.120Z,86.03
2023-04-16T04:07:23.886Z,86.05
2023-04-16T04:07:58.008Z,86.07
2023-04-16T04:08:31.212Z,86.10
2023-04-16T04:09:04.559Z,86.07
2023-04-16T04:09:37.794Z,86.17
2023-04-16T04:10:13.163Z,86.05
2023-04-16T04:10:47.434Z,86.09
2023-04-16T04:11:20.862Z,86.03
2023-04-16T04:11:55.130Z,86.08
2023-04-16T04:12:29.368Z,86.04
2023-04-16T04:13:05.113Z,86.14
2023-04-16T04:13:39.098Z,86.09
2023-04-16T04:14:12.351Z,86.07
2023-04-16T04:14:45.676Z,86.01
2023-04-16T04:15:19.026Z,86.02
2023-04-16T04:15:52.360Z,86.07
2023-04-16T04:16:27.409Z,86.12
2023-04-16T04:17:00.953Z,86.13
2023-04-16T04:17:34.585Z,86.24
2023-04-16T04:18:08.374Z,86.20
2023-04-16T04:18:43.299Z,86.26
2023-04-16T04:19:17.781Z,86.21
2023-04-16T04:20:00.911Z,86.32
2023-04-16T04:20:40.307Z,86.30
2023-04-16T04:21:13.980Z,86.34
2023-04-16T04:21:47.824Z,86.31
2023-04-16T04:22:22.714Z,86.32
2023-04-16T04:22:58.948Z,86.28
2023-04-16T04:23:32.344Z,86.31
2023-04-16T04:24:05.791Z,86.31
2023-04-16T04:24:39.405Z,86.27
2023-04-16T04:25:12.756Z,86.29
2023-04-16T04:25:49.018Z,86.28
2023-04-16T04:26:22.857Z,86.26
2023-04-16T04:26:57.699Z,86.27
2023-04-16T04:27:31.082Z,86.25
2023-04-16T04:28:04.651Z,86.29
2023-04-16T04:28:37.969Z,86.30
2023-04-16T04:29:11.574Z,86.27
2023-04-16T04:29:45.087Z,86.27
2023-04-16T04:30:18.417Z,86.23
2023-04-16T04:30:51.854Z,86.27
2023-04-16T04:31:27.581Z,86.22
2023-04-16T04:32:01.292Z,86.18
2023-04-16T04:32:35.073Z,86.19
2023-04-16T04:33:09.120Z,86.22
2023-04-16T04:33:44.828Z,86.14
2023-04-16T04:34:19.389Z,86.18
2023-04-16T04:34:52.880Z,86.25
2023-04-16T04:35:26.897Z,86.33
2023-04-16T04:37:49.158Z,86.62
2023-04-16T04:38:25.525Z,86.61
2023-04-16T04:38:58.991Z,86.57
2023-04-16T04:39:32.467Z,86.55
2023-04-16T04:40:06.790Z,86.34
2023-04-16T04:40:41.199Z,86.37
2023-04-16T04:41:14.728Z,86.38
2023-04-16T04:41:48.784Z,86.37
2023-04-16T04:42:23.096Z,86.39
2023-04-16T04:42:58.221Z,86.30
2023-04-16T04:43:32.206Z,86.47
2023-04-16T04:44:06.633Z,86.53
2023-04-16T04:44:40.005Z,86.66
2023-04-16T04:45:14.636Z,86.72
2023-04-16T04:45:49.400Z,86.65
2023-04-16T04:46:23.504Z,86.74
2023-04-16T04:46:57.155Z,86.76
2023-04-16T04:47:30.652Z,86.79
2023-04-16T04:48:04.454Z,86.82
2023-04-16T04:48:37.965Z,86.84
2023-04-16T04:49:11.528Z,86.81
2023-04-16T04:49:44.951Z,86.75
2023-04-16T04:50:18.204Z,86.74
2023-04-16T04:50:51.948Z,86.78
2023-04-16T04:51:25.395Z,86.73
2023-04-16T04:51:58.762Z,86.78
2023-04-16T04:52:32.033Z,86.80
2023-04-16T04:53:10.412Z,86.75
2023-04-16T04:53:44.224Z,86.72
2023-04-16T04:54:17.748Z,86.75
2023-04-16T04:54:51.143Z,86.74
2023-04-16T04:55:24.611Z,86.71
2023-04-16T04:56:08.963Z,86.66
2023-04-16T04:56:46.232Z,86.64
2023-04-16T04:57:21.234Z,86.70
2023-04-16T04:57:58.001Z,86.67
2023-04-16T04:58:34.566Z,86.66
2023-04-16T04:59:09.225Z,86.66
2023-04-16T04:59:42.749Z,86.74
2023-04-16T05:00:16.963Z,86.69
2023-04-16T05:00:57.011Z,86.67
2023-04-16T05:01:31.814Z,86.69
2023-04-16T05:02:08.561Z,86.71
2023-04-16T05:02:42.332Z,86.68
2023-04-16T05:03:22.483Z,86.65
2023-04-16T05:03:56.599Z,86.65
2023-04-16T05:04:31.622Z,86.65
2023-04-16T05:05:06.182Z,86.68
2023-04-16T05:05:41.558Z,86.69
2023-04-16T05:06:14.878Z,86.64
2023-04-16T05:06:48.234Z,86.63
2023-04-16T05:07:22.485Z,86.69
2023-04-16T05:07:55.874Z,86.62
2023-04-16T05:08:29.197Z,86.59
2023-04-16T05:09:02.536Z,86.55
2023-04-16T05:09:36.178Z,86.47
2023-04-16T05:10:10.240Z,86.52
2023-04-16T05:10:43.543Z,86.42
2023-04-16T05:11:17.211Z,86.44
2023-04-16T05:11:53.465Z,86.44
2023-04-16T05:12:27.304Z,86.39
2023-04-16T05:13:01.191Z,86.47
2023-04-16T05:13:35.976Z,86.57
2023-04-16T05:14:10.047Z,86.55
2023-04-16T05:14:46.493Z,86.72
2023-04-16T05:15:19.959Z,86.70
2023-04-16T05:15:53.455Z,86.70
2023-04-16T05:16:26.767Z,86.72
2023-04-16T05:17:00.274Z,86.77
2023-04-16T05:17:33.958Z,86.72
2023-04-16T05:18:07.461Z,86.59
2023-04-16T05:18:41.026Z,86.68
2023-04-16T05:19:14.844Z,86.75
2023-04-16T05:19:48.319Z,86.73
2023-04-16T05:20:24.666Z,86.69
2023-04-16T05:20:57.972Z,86.69
2023-04-16T05:21:31.545Z,86.62
2023-04-16T05:22:05.090Z,86.59
2023-04-16T05:22:38.487Z,86.63
2023-04-16T05:23:11.883Z,86.69
2023-04-16T05:23:45.492Z,86.65
2023-04-16T05:24:20.019Z,86.63
2023-04-16T05:24:53.965Z,86.67
2023-04-16T05:25:28.700Z,86.68
2023-04-16T05:26:02.127Z,86.69
2023-04-16T05:26:35.613Z,86.67
2023-04-16T05:27:08.913Z,86.73
2023-04-16T05:27:42.226Z,86.66
2023-04-16T05:28:15.531Z,86.63
2023-04-16T05:28:49.011Z,86.67
2023-04-16T05:29:22.462Z,86.73
2023-04-16T05:29:56.014Z,86.58
2023-04-16T05:30:29.590Z,86.64
2023-04-16T05:31:03.024Z,86.60
2023-04-16T05:31:36.640Z,86.67
2023-04-16T05:32:09.988Z,86.59
2023-04-16T05:32:43.284Z,86.61
2023-04-16T05:33:16.718Z,86.59
2023-04-16T05:33:50.027Z,86.57
2023-04-16T05:34:23.250Z,86.62
2023-04-16T05:34:56.721Z,86.57
2023-04-16T05:35:30.966Z,86.54
2023-04-16T05:36:05.566Z,86.54
2023-04-16T05:36:39.475Z,86.54
2023-04-16T05:37:12.768Z,86.59
2023-04-16T05:37:47.155Z,86.58
2023-04-16T05:38:20.895Z,86.56
2023-04-16T05:38:56.751Z,86.57
2023-04-16T05:39:30.112Z,86.60
2023-04-16T05:40:04.280Z,86.66
2023-04-16T05:40:37.666Z,86.63
2023-04-16T05:41:11.115Z,86.67
2023-04-16T05:41:44.619Z,86.62
2023-04-16T05:42:17.990Z,86.68
2023-04-16T05:42:51.435Z,86.66
2023-04-16T05:43:24.998Z,86.67
2023-04-16T05:43:58.421Z,86.61
2023-04-16T05:44:31.737Z,86.66
2023-04-16T05:45:05.830Z,86.61
2023-04-16T05:45:41.403Z,86.65
2023-04-16T05:46:14.881Z,86.53
2023-04-16T05:46:48.265Z,86.50
2023-04-16T05:47:21.788Z,86.51
2023-04-16T05:47:55.379Z,86.51
2023-04-16T05:48:28.914Z,86.42
2023-04-16T05:49:02.446Z,86.40
2023-04-16T05:49:39.720Z,86.35
2023-04-16T05:50:13.113Z,86.36
2023-04-16T05:50:46.526Z,86.38
2023-04-16T05:51:20.410Z,86.29
2023-04-16T05:51:53.904Z,86.22
2023-04-16T05:52:27.278Z,86.27
2023-04-16T05:53:00.759Z,86.17
2023-04-16T05:53:34.454Z,86.07
2023-04-16T05:54:07.964Z,86.04
2023-04-16T05:54:41.635Z,86.04
2023-04-16T05:55:15.008Z,85.93
2023-04-16T05:55:48.503Z,85.92
2023-04-16T05:56:22.268Z,85.87
2023-04-16T05:56:55.740Z,85.90
2023-04-16T05:57:30.440Z,85.91
2023-04-16T05:58:06.994Z,85.89
2023-04-16T05:58:40.437Z,85.78
2023-04-16T05:59:13.876Z,85.59
2023-04-16T05:59:47.319Z,85.29
2023-04-16T06:00:21.300Z,85.28
2023-04-16T06:00:54.871Z,85.12
2023-04-16T06:01:28.344Z,84.73
2023-04-16T06:02:01.803Z,84.64
2023-04-16T06:02:35.582Z,84.57
2023-04-16T06:03:09.440Z,84.80
2023-04-16T06:03:43.118Z,85.04
2023-04-16T06:04:16.590Z,85.15
2023-04-16T06:04:50.176Z,85.30
2023-04-16T06:05:23.511Z,85.42
2023-04-16T06:05:56.997Z,85.50
2023-04-16T06:06:30.372Z,85.52
2023-04-16T06:07:03.962Z,85.37
2023-04-16T06:07:37.374Z,85.12
2023-04-16T06:08:10.792Z,85.06
2023-04-16T06:08:44.319Z,84.84
2023-04-16T06:09:18.608Z,84.96
2023-04-16T06:09:52.126Z,85.01
2023-04-16T06:10:25.634Z,85.03
2023-04-16T06:10:59.097Z,84.97
2023-04-16T06:11:33.582Z,84.97
2023-04-16T06:12:08.190Z,85.08
2023-04-16T06:12:41.851Z,85.14
2023-04-16T06:13:15.378Z,85.15
2023-04-16T06:13:48.809Z,85.11
2023-04-16T06:14:25.127Z,85.06
2023-04-16T06:14:58.501Z,84.87
2023-04-16T06:15:31.893Z,84.89
2023-04-16T06:16:05.775Z,84.70
2023-04-16T06:16:39.207Z,84.56
2023-04-16T06:17:12.638Z,84.52
2023-04-16T06:17:46.015Z,84.43
2023-04-16T06:18:19.337Z,84.40
2023-04-16T06:18:52.761Z,84.25
2023-04-16T06:19:26.158Z,84.15
2023-04-16T06:19:59.623Z,84.18
2023-04-16T06:20:32.865Z,83.86
2023-04-16T06:21:06.421Z,83.92
2023-04-16T06:21:39.861Z,83.77
2023-04-16T06:22:13.235Z,83.39
2023-04-16T06:22:46.567Z,82.97
2023-04-16T06:23:19.987Z,82.97
2023-04-16T06:23:54.631Z,82.59
2023-04-16T06:24:27.979Z,82.54
2023-04-16T06:25:01.306Z,82.38
2023-04-16T06:25:34.702Z,82.46
2023-04-16T06:26:08.078Z,82.49
2023-04-16T06:26:41.461Z,82.70
2023-04-16T06:27:14.834Z,82.82
2023-04-16T06:27:48.204Z,82.71
2023-04-16T06:28:21.760Z,82.40
2023-04-16T06:28:55.078Z,82.63
2023-04-16T06:29:40.696Z,82.61
2023-04-16T06:30:16.344Z,82.30
2023-04-16T06:30:50.582Z,82.29
2023-04-16T06:31:25.022Z,82.12
2023-04-16T06:31:58.362Z,82.13
2023-04-16T06:32:31.796Z,81.79
2023-04-16T06:33:05.525Z,81.80
2023-04-16T06:33:38.895Z,81.83
2023-04-16T06:34:12.142Z,81.43
2023-04-16T06:34:45.528Z,81.28
2023-04-16T06:35:20.413Z,81.53
2023-04-16T06:35:53.673Z,81.53
2023-04-16T06:36:27.936Z,81.34
2023-04-16T06:37:01.688Z,81.54
2023-04-16T06:37:35.601Z,81.45
2023-04-16T06:38:08.953Z,81.53
2023-04-16T06:38:42.675Z,81.60
2023-04-16T06:39:16.105Z,81.60
2023-04-16T06:39:49.456Z,81.73
2023-04-16T06:40:22.970Z,81.62
2023-04-16T06:40:56.800Z,81.69
2023-04-16T06:41:30.832Z,81.67
2023-04-16T06:42:04.508Z,81.65
2023-04-16T06:42:37.886Z,81.61
2023-04-16T06:43:12.025Z,81.58
2023-04-16T06:43:45.819Z,81.52
2023-04-16T06:44:19.210Z,81.60
2023-04-16T06:44:52.496Z,81.59
2023-04-16T06:45:25.857Z,81.01
2023-04-16T06:45:59.260Z,80.31
2023-04-16T06:46:32.605Z,80.09
2023-04-16T06:47:08.531Z,80.21
2023-04-16T06:47:42.669Z,80.40
2023-04-16T06:48:16.278Z,80.35
2023-04-16T06:48:49.816Z,80.71
2023-04-16T06:49:23.191Z,80.99
2023-04-16T06:49:56.494Z,81.15
2023-04-16T06:50:29.850Z,81.13
2023-04-16T06:51:03.538Z,80.78
2023-04-16T06:51:36.899Z,80.90
2023-04-16T06:52:10.446Z,81.11
2023-04-16T06:52:43.962Z,81.36
2023-04-16T06:53:17.350Z,81.14
2023-04-16T06:53:50.690Z,80.94
2023-04-16T06:54:24.081Z,80.99
2023-04-16T06:54:57.530Z,80.71
2023-04-16T06:55:31.209Z,80.71
2023-04-16T06:56:05.195Z,80.51
2023-04-16T06:56:38.650Z,80.66
2023-04-16T06:57:12.092Z,80.02
2023-04-16T06:57:45.580Z,79.84
2023-04-16T06:58:18.917Z,80.09
2023-04-16T06:58:52.538Z,79.69
2023-04-16T06:59:25.932Z,79.74
2023-04-16T06:59:59.416Z,79.96
2023-04-16T07:00:32.806Z,80.21
2023-04-16T07:01:06.382Z,80.09
2023-04-16T07:01:39.744Z,80.31
2023-04-16T07:02:13.330Z,80.33
2023-04-16T07:02:47.027Z,80.46
2023-04-16T07:03:20.693Z,80.70
2023-04-16T07:03:55.106Z,80.69
2023-04-16T07:04:31.630Z,80.51
2023-04-16T07:05:05.715Z,80.48
2023-04-16T07:05:39.464Z,80.14
2023-04-16T07:06:12.943Z,80.20
2023-04-16T07:06:46.532Z,80.31
2023-04-16T07:07:20.436Z,80.33
2023-04-16T07:07:56.509Z,80.49
2023-04-16T07:08:32.805Z,80.62
2023-04-16T07:09:06.626Z,80.58
2023-04-16T07:09:40.679Z,80.62
2023-04-16T07:10:14.543Z,80.50
2023-04-16T07:10:48.262Z,80.59
2023-04-16T07:11:22.768Z,80.53
2023-04-16T07:11:56.416Z,80.52
2023-04-16T07:12:30.368Z,80.45
2023-04-16T07:13:04.249Z,80.70
2023-04-16T07:13:38.016Z,80.86
2023-04-16T07:14:12.037Z,80.94
2023-04-16T07:14:45.759Z,80.85
2023-04-16T07:15:19.531Z,81.00
2023-04-16T07:15:53.826Z,81.09
2023-04-16T07:16:27.695Z,81.19
2023-04-16T07:17:01.943Z,81.19
2023-04-16T07:17:35.743Z,80.92
2023-04-16T07:18:09.795Z,80.83
2023-04-16T07:18:43.787Z,80.79
2023-04-16T07:19:17.435Z,80.72
2023-04-16T07:19:52.278Z,80.77
2023-04-16T07:20:26.041Z,80.90
2023-04-16T07:20:59.773Z,81.00
2023-04-16T07:21:33.682Z,81.01
2023-04-16T07:22:07.386Z,80.97
2023-04-16T07:22:41.090Z,81.01
2023-04-16T07:23:14.804Z,80.97
2023-04-16T07:23:48.358Z,80.96
2023-04-16T07:24:22.103Z,81.01